sensor_id;sensor_type;location;lat;lon;timestamp;pressure;altitude;pressure_sealevel;temperature;humidity
13387;BME280;6763;48.524;9.044;2023-03-01T00:00:39;98484.16;;;3.11;45.72
13387;BME280;6763;48.524;9.044;2023-03-01T00:03:04;98486.59;;;3.05;46.63
13387;BME280;6763;48.524;9.044;2023-03-01T00:05:30;98488.19;;;3.01;46.54
13387;BME280;6763;48.524;9.044;2023-03-01T00:07:55;98485.56;;;2.98;46.41
13387;BME280;6763;48.524;9.044;2023-03-01T00:10:20;98483.81;;;2.96;46.59
13387;BME280;6763;48.524;9.044;2023-03-01T00:12:45;98478.69;;;2.94;46.84
13387;BME280;6763;48.524;9.044;2023-03-01T00:15:11;98485.47;;;2.94;46.51
13387;BME280;6763;48.524;9.044;2023-03-01T00:17:37;98471.81;;;2.92;47.15
13387;BME280;6763;48.524;9.044;2023-03-01T00:20:03;98493.06;;;2.91;47.12
13387;BME280;6763;48.524;9.044;2023-03-01T00:22:28;98491.28;;;2.85;47.19
13387;BME280;6763;48.524;9.044;2023-03-01T00:24:54;98488.59;;;2.81;46.85
13387;BME280;6763;48.524;9.044;2023-03-01T00:27:19;98482.56;;;2.77;46.90
13387;BME280;6763;48.524;9.044;2023-03-01T00:29:44;98477.38;;;2.74;47.45
13387;BME280;6763;48.524;9.044;2023-03-01T00:32:10;98480.75;;;2.73;47.32
13387;BME280;6763;48.524;9.044;2023-03-01T00:34:35;98478.09;;;2.69;46.92
13387;BME280;6763;48.524;9.044;2023-03-01T00:37:00;98479.69;;;2.64;47.31
13387;BME280;6763;48.524;9.044;2023-03-01T00:39:31;98479.56;;;2.59;47.78
13387;BME280;6763;48.524;9.044;2023-03-01T00:41:56;98482.06;;;2.56;47.76
13387;BME280;6763;48.524;9.044;2023-03-01T00:44:21;98476.06;;;2.54;47.63
13387;BME280;6763;48.524;9.044;2023-03-01T00:46:47;98468.31;;;2.53;47.70
13387;BME280;6763;48.524;9.044;2023-03-01T00:49:13;98471.69;;;2.50;47.88
13387;BME280;6763;48.524;9.044;2023-03-01T00:51:38;98463.94;;;2.47;47.76
13387;BME280;6763;48.524;9.044;2023-03-01T00:54:08;98463.91;;;2.45;48.05
13387;BME280;6763;48.524;9.044;2023-03-01T00:56:34;98462.97;;;2.42;47.81
13387;BME280;6763;48.524;9.044;2023-03-01T00:59:00;98456.97;;;2.40;48.47
13387;BME280;6763;48.524;9.044;2023-03-01T01:01:27;98464.59;;;2.38;48.16
13387;BME280;6763;48.524;9.044;2023-03-01T01:03:59;98456.84;;;2.35;48.31
13387;BME280;6763;48.524;9.044;2023-03-01T01:06:45;98455.97;;;2.33;48.13
13387;BME280;6763;48.524;9.044;2023-03-01T01:09:13;98450.69;;;2.27;48.12
13387;BME280;6763;48.524;9.044;2023-03-01T01:11:43;98449.72;;;2.22;48.84
13387;BME280;6763;48.524;9.044;2023-03-01T01:14:08;98447.97;;;2.20;48.40
13387;BME280;6763;48.524;9.044;2023-03-01T01:16:34;98448.75;;;2.17;48.48
13387;BME280;6763;48.524;9.044;2023-03-01T01:18:59;98447.00;;;2.15;48.46
13387;BME280;6763;48.524;9.044;2023-03-01T01:21:25;98441.78;;;2.12;48.98
13387;BME280;6763;48.524;9.044;2023-03-01T01:23:51;98442.59;;;2.09;48.95
13387;BME280;6763;48.524;9.044;2023-03-01T01:26:25;98439.13;;;2.07;49.19
13387;BME280;6763;48.524;9.044;2023-03-01T01:28:51;98433.94;;;2.04;49.22
13387;BME280;6763;48.524;9.044;2023-03-01T01:31:17;98436.41;;;2.01;49.09
13387;BME280;6763;48.524;9.044;2023-03-01T01:33:43;98430.28;;;1.95;48.68
13387;BME280;6763;48.524;9.044;2023-03-01T01:36:08;98435.28;;;1.90;48.93
13387;BME280;6763;48.524;9.044;2023-03-01T01:38:36;98431.75;;;1.85;48.59
13387;BME280;6763;48.524;9.044;2023-03-01T01:41:02;98434.16;;;1.79;49.10
13387;BME280;6763;48.524;9.044;2023-03-01T01:43:30;98428.97;;;1.76;49.01
13387;BME280;6763;48.524;9.044;2023-03-01T01:46:14;98430.59;;;1.74;48.93
13387;BME280;6763;48.524;9.044;2023-03-01T01:48:44;98426.25;;;1.70;48.88
13387;BME280;6763;48.524;9.044;2023-03-01T01:51:17;98428.00;;;1.71;49.77
13387;BME280;6763;48.524;9.044;2023-03-01T01:53:48;98434.00;;;1.74;49.52
13387;BME280;6763;48.524;9.044;2023-03-01T01:56:16;98432.63;;;1.85;50.02
13387;BME280;6763;48.524;9.044;2023-03-01T01:58:44;98435.53;;;1.99;49.56
13387;BME280;6763;48.524;9.044;2023-03-01T02:01:10;98424.88;;;2.15;49.70
13387;BME280;6763;48.524;9.044;2023-03-01T02:03:38;98429.56;;;2.34;49.28
13387;BME280;6763;48.524;9.044;2023-03-01T02:08:40;98417.66;;;2.71;48.84
13387;BME280;6763;48.524;9.044;2023-03-01T02:11:07;98414.63;;;2.88;48.83
13387;BME280;6763;48.524;9.044;2023-03-01T02:13:34;98403.88;;;3.03;48.98
13387;BME280;6763;48.524;9.044;2023-03-01T02:16:12;98399.06;;;3.18;48.74
13387;BME280;6763;48.524;9.044;2023-03-01T02:18:39;98396.75;;;3.30;48.69
13387;BME280;6763;48.524;9.044;2023-03-01T02:21:17;98394.44;;;3.44;47.93
13387;BME280;6763;48.524;9.044;2023-03-01T02:23:47;98397.22;;;3.56;48.08
13387;BME280;6763;48.524;9.044;2023-03-01T02:28:57;98388.19;;;3.73;47.71
13387;BME280;6763;48.524;9.044;2023-03-01T02:31:22;98380.63;;;3.81;47.59
13387;BME280;6763;48.524;9.044;2023-03-01T02:34:07;98382.47;;;3.89;47.33
13387;BME280;6763;48.524;9.044;2023-03-01T02:36:59;98380.00;;;3.95;46.78
13387;BME280;6763;48.524;9.044;2023-03-01T02:39:39;98375.91;;;4.05;46.93
13387;BME280;6763;48.524;9.044;2023-03-01T02:42:08;98375.19;;;4.13;46.58
13387;BME280;6763;48.524;9.044;2023-03-01T02:44:35;98371.88;;;4.17;46.79
13387;BME280;6763;48.524;9.044;2023-03-01T02:47:02;98370.22;;;4.22;46.67
13387;BME280;6763;48.524;9.044;2023-03-01T02:49:31;98366.06;;;4.29;46.51
13387;BME280;6763;48.524;9.044;2023-03-01T02:57:27;98359.34;;;4.35;46.27
13387;BME280;6763;48.524;9.044;2023-03-01T02:59:54;98363.63;;;4.38;46.24
13387;BME280;6763;48.524;9.044;2023-03-01T03:02:26;98358.53;;;4.41;46.07
13387;BME280;6763;48.524;9.044;2023-03-01T03:05:03;98355.16;;;4.44;45.98
13387;BME280;6763;48.524;9.044;2023-03-01T03:07:32;98352.69;;;4.48;45.77
13387;BME280;6763;48.524;9.044;2023-03-01T03:09:58;98353.63;;;4.55;45.88
13387;BME280;6763;48.524;9.044;2023-03-01T03:12:23;98346.84;;;4.60;45.73
13387;BME280;6763;48.524;9.044;2023-03-01T03:14:49;98341.81;;;4.64;45.39
13387;BME280;6763;48.524;9.044;2023-03-01T03:17:14;98336.72;;;4.69;45.67
13387;BME280;6763;48.524;9.044;2023-03-01T03:19:39;98339.41;;;4.76;45.75
13387;BME280;6763;48.524;9.044;2023-03-01T03:22:05;98339.44;;;4.79;45.47
13387;BME280;6763;48.524;9.044;2023-03-01T03:24:30;98342.91;;;4.84;45.54
13387;BME280;6763;48.524;9.044;2023-03-01T03:27:05;98335.28;;;4.89;45.35
13387;BME280;6763;48.524;9.044;2023-03-01T03:29:31;98345.56;;;4.92;45.50
13387;BME280;6763;48.524;9.044;2023-03-01T03:31:58;98333.63;;;4.95;45.16
13387;BME280;6763;48.524;9.044;2023-03-01T03:34:23;98336.25;;;4.98;45.21
13387;BME280;6763;48.524;9.044;2023-03-01T03:36:56;98332.00;;;5.02;45.05
13387;BME280;6763;48.524;9.044;2023-03-01T03:39:25;98325.19;;;5.04;45.02
13387;BME280;6763;48.524;9.044;2023-03-01T03:41:52;98331.19;;;5.06;45.42
13387;BME280;6763;48.524;9.044;2023-03-01T03:44:17;98325.22;;;5.07;45.00
13387;BME280;6763;48.524;9.044;2023-03-01T03:46:42;98328.66;;;5.09;44.75
13387;BME280;6763;48.524;9.044;2023-03-01T03:49:08;98323.56;;;5.11;45.06
13387;BME280;6763;48.524;9.044;2023-03-01T03:51:33;98322.72;;;5.12;45.03
13387;BME280;6763;48.524;9.044;2023-03-01T03:53:58;98326.16;;;5.14;44.80
13387;BME280;6763;48.524;9.044;2023-03-01T03:56:24;98324.50;;;5.16;44.86
13387;BME280;6763;48.524;9.044;2023-03-01T03:58:51;98325.34;;;5.16;44.40
13387;BME280;6763;48.524;9.044;2023-03-01T04:01:18;98316.78;;;5.16;44.36
13387;BME280;6763;48.524;9.044;2023-03-01T04:03:43;98316.78;;;5.16;44.47
13387;BME280;6763;48.524;9.044;2023-03-01T04:06:14;98316.78;;;5.16;44.73
13387;BME280;6763;48.524;9.044;2023-03-01T04:08:40;98316.81;;;5.19;44.58
13387;BME280;6763;48.524;9.044;2023-03-01T04:11:06;98315.97;;;5.20;44.70
13387;BME280;6763;48.524;9.044;2023-03-01T04:13:52;98305.69;;;5.18;44.86
13387;BME280;6763;48.524;9.044;2023-03-01T04:16:18;98310.88;;;5.21;44.44
13387;BME280;6763;48.524;9.044;2023-03-01T04:18:44;98296.34;;;5.23;44.63
13387;BME280;6763;48.524;9.044;2023-03-01T04:21:09;98304.91;;;5.27;44.45
13387;BME280;6763;48.524;9.044;2023-03-01T04:23:37;98313.53;;;5.32;44.34
13387;BME280;6763;48.524;9.044;2023-03-01T04:26:03;98310.16;;;5.34;44.15
13387;BME280;6763;48.524;9.044;2023-03-01T04:28:29;98297.34;;;5.39;44.27
13387;BME280;6763;48.524;9.044;2023-03-01T04:30:57;98304.22;;;5.43;44.09
13387;BME280;6763;48.524;9.044;2023-03-01T04:33:23;98297.41;;;5.45;44.21
13387;BME280;6763;48.524;9.044;2023-03-01T04:35:49;98298.31;;;5.50;44.00
13387;BME280;6763;48.524;9.044;2023-03-01T04:38:16;98289.78;;;5.52;44.12
13387;BME280;6763;48.524;9.044;2023-03-01T04:40:41;98289.78;;;5.55;43.26
13387;BME280;6763;48.524;9.044;2023-03-01T04:43:08;98287.28;;;5.60;43.36
13387;BME280;6763;48.524;9.044;2023-03-01T04:45:34;98287.28;;;5.63;43.44
13387;BME280;6763;48.524;9.044;2023-03-01T04:47:59;98283.88;;;5.65;43.27
13387;BME280;6763;48.524;9.044;2023-03-01T04:50:25;98281.34;;;5.69;43.24
13387;BME280;6763;48.524;9.044;2023-03-01T04:52:51;98288.22;;;5.71;43.01
13387;BME280;6763;48.524;9.044;2023-03-01T04:55:16;98290.00;;;5.75;42.99
13387;BME280;6763;48.524;9.044;2023-03-01T04:57:42;98284.88;;;5.78;43.08
13387;BME280;6763;48.524;9.044;2023-03-01T05:00:10;98291.75;;;5.81;43.31
13387;BME280;6763;48.524;9.044;2023-03-01T05:07:51;98282.41;;;5.87;42.88
13387;BME280;6763;48.524;9.044;2023-03-01T05:10:17;98284.13;;;5.88;43.31
13387;BME280;6763;48.524;9.044;2023-03-01T05:12:42;98285.84;;;5.88;43.05
13387;BME280;6763;48.524;9.044;2023-03-01T05:15:08;98287.53;;;5.87;42.95
13387;BME280;6763;48.524;9.044;2023-03-01T05:17:34;98284.09;;;5.87;42.91
13387;BME280;6763;48.524;9.044;2023-03-01T05:19:59;98271.25;;;5.85;42.90
13387;BME280;6763;48.524;9.044;2023-03-01T05:22:25;98281.53;;;5.85;42.74
13387;BME280;6763;48.524;9.044;2023-03-01T05:24:50;98279.78;;;5.84;42.51
13387;BME280;6763;48.524;9.044;2023-03-01T05:27:16;98287.47;;;5.84;42.67
13387;BME280;6763;48.524;9.044;2023-03-01T05:29:41;98282.34;;;5.84;42.64
13387;BME280;6763;48.524;9.044;2023-03-01T05:32:07;98274.69;;;5.86;42.43
13387;BME280;6763;48.524;9.044;2023-03-01T05:34:35;98283.25;;;5.86;42.61
13387;BME280;6763;48.524;9.044;2023-03-01T05:37:01;98283.28;;;5.88;43.04
13387;BME280;6763;48.524;9.044;2023-03-01T05:39:28;98269.59;;;5.90;42.43
13387;BME280;6763;48.524;9.044;2023-03-01T05:41:56;98285.00;;;5.92;42.57
13387;BME280;6763;48.524;9.044;2023-03-01T05:44:23;98279.03;;;5.93;42.69
13387;BME280;6763;48.524;9.044;2023-03-01T05:46:49;98277.31;;;5.95;42.46
13387;BME280;6763;48.524;9.044;2023-03-01T05:49:14;98271.34;;;5.96;42.70
13387;BME280;6763;48.524;9.044;2023-03-01T05:51:41;98275.66;;;5.98;42.33
13387;BME280;6763;48.524;9.044;2023-03-01T05:54:06;98273.94;;;6.00;42.48
13387;BME280;6763;48.524;9.044;2023-03-01T05:56:33;98273.09;;;6.01;42.64
13387;BME280;6763;48.524;9.044;2023-03-01T05:59:00;98274.84;;;6.04;42.25
13387;BME280;6763;48.524;9.044;2023-03-01T06:01:25;98271.41;;;6.08;42.65
13387;BME280;6763;48.524;9.044;2023-03-01T06:03:51;98269.72;;;6.10;42.33
13387;BME280;6763;48.524;9.044;2023-03-01T06:06:16;98271.44;;;6.11;42.40
13387;BME280;6763;48.524;9.044;2023-03-01T06:08:42;98264.63;;;6.14;42.58
13387;BME280;6763;48.524;9.044;2023-03-01T06:11:07;98265.47;;;6.15;42.29
13387;BME280;6763;48.524;9.044;2023-03-01T06:13:32;98269.75;;;6.17;42.36
13387;BME280;6763;48.524;9.044;2023-03-01T06:15:58;98272.34;;;6.20;41.85
13387;BME280;6763;48.524;9.044;2023-03-01T06:18:23;98272.38;;;6.22;42.00
13387;BME280;6763;48.524;9.044;2023-03-01T06:20:53;98262.13;;;6.25;42.43
13387;BME280;6763;48.524;9.044;2023-03-01T06:23:19;98252.69;;;6.25;41.80
13387;BME280;6763;48.524;9.044;2023-03-01T06:25:44;98252.72;;;6.30;41.74
13387;BME280;6763;48.524;9.044;2023-03-01T06:28:09;98247.59;;;6.32;41.72
13387;BME280;6763;48.524;9.044;2023-03-01T06:30:35;98266.47;;;6.35;41.71
13387;BME280;6763;48.524;9.044;2023-03-01T06:33:00;98266.47;;;6.40;41.84
13387;BME280;6763;48.524;9.044;2023-03-01T06:35:28;98269.09;;;6.46;41.88
13387;BME280;6763;48.524;9.044;2023-03-01T06:37:55;98266.53;;;6.52;41.84
13387;BME280;6763;48.524;9.044;2023-03-01T06:40:20;98266.56;;;6.53;41.49
13387;BME280;6763;48.524;9.044;2023-03-01T06:42:49;98263.13;;;6.53;41.61
13387;BME280;6763;48.524;9.044;2023-03-01T06:45:15;98271.66;;;6.44;41.45
13387;BME280;6763;48.524;9.044;2023-03-01T06:47:41;98265.59;;;6.32;41.54
13387;BME280;6763;48.524;9.044;2023-03-01T06:50:07;98263.78;;;6.20;41.77
13387;BME280;6763;48.524;9.044;2023-03-01T06:52:32;98262.88;;;6.10;42.07
13387;BME280;6763;48.524;9.044;2023-03-01T06:54:58;98264.53;;;6.02;42.45
13387;BME280;6763;48.524;9.044;2023-03-01T06:57:23;98266.22;;;5.97;42.25
13387;BME280;6763;48.524;9.044;2023-03-01T06:59:49;98269.59;;;5.92;42.40
13387;BME280;6763;48.524;9.044;2023-03-01T07:02:14;98262.72;;;5.88;42.59
13387;BME280;6763;48.524;9.044;2023-03-01T07:04:41;98261.00;;;5.87;42.63
13387;BME280;6763;48.524;9.044;2023-03-01T07:07:06;98260.13;;;5.85;42.86
13387;BME280;6763;48.524;9.044;2023-03-01T07:09:32;98252.41;;;5.85;42.97
13387;BME280;6763;48.524;9.044;2023-03-01T07:11:57;98252.44;;;5.88;42.55
13387;BME280;6763;48.524;9.044;2023-03-01T07:14:23;98252.44;;;5.89;42.67
13387;BME280;6763;48.524;9.044;2023-03-01T07:16:52;98251.59;;;5.90;42.75
13387;BME280;6763;48.524;9.044;2023-03-01T07:19:17;98246.50;;;5.93;42.40
13387;BME280;6763;48.524;9.044;2023-03-01T07:21:43;98240.53;;;5.96;42.28
13387;BME280;6763;48.524;9.044;2023-03-01T07:24:08;98243.97;;;6.01;42.21
13387;BME280;6763;48.524;9.044;2023-03-01T07:26:34;98248.31;;;6.06;42.47
13387;BME280;6763;48.524;9.044;2023-03-01T07:29:00;98249.16;;;6.10;42.16
13387;BME280;6763;48.524;9.044;2023-03-01T07:31:26;98242.34;;;6.15;42.36
13387;BME280;6763;48.524;9.044;2023-03-01T07:33:54;98246.66;;;6.20;41.92
13387;BME280;6763;48.524;9.044;2023-03-01T07:36:19;98239.84;;;6.25;42.13
13387;BME280;6763;48.524;9.044;2023-03-01T07:38:44;98233.00;;;6.31;41.50
13387;BME280;6763;48.524;9.044;2023-03-01T07:41:10;98232.19;;;6.38;41.48
13387;BME280;6763;48.524;9.044;2023-03-01T07:43:35;98226.22;;;6.46;41.80
13387;BME280;6763;48.524;9.044;2023-03-01T07:46:01;98232.25;;;6.54;41.45
13387;BME280;6763;48.524;9.044;2023-03-01T07:48:27;98227.16;;;6.62;40.95
13387;BME280;6763;48.524;9.044;2023-03-01T07:50:53;98223.78;;;6.69;40.75
13387;BME280;6763;48.524;9.044;2023-03-01T07:53:18;98216.06;;;6.76;40.79
13387;BME280;6763;48.524;9.044;2023-03-01T07:55:43;98216.06;;;6.82;40.49
13387;BME280;6763;48.524;9.044;2023-03-01T07:58:09;98220.41;;;6.90;40.63
13387;BME280;6763;48.524;9.044;2023-03-01T08:00:34;98215.25;;;6.99;40.73
13387;BME280;6763;48.524;9.044;2023-03-01T08:03:00;98220.44;;;7.09;40.60
13387;BME280;6763;48.524;9.044;2023-03-01T08:05:26;98213.59;;;7.17;40.23
13387;BME280;6763;48.524;9.044;2023-03-01T08:07:52;98212.75;;;7.26;40.32
13387;BME280;6763;48.524;9.044;2023-03-01T08:10:17;98211.91;;;7.36;39.98
13387;BME280;6763;48.524;9.044;2023-03-01T08:12:43;98204.16;;;7.45;39.97
13387;BME280;6763;48.524;9.044;2023-03-01T08:15:08;98207.59;;;7.50;39.70
13387;BME280;6763;48.524;9.044;2023-03-01T08:17:34;98218.78;;;7.57;39.53
13387;BME280;6763;48.524;9.044;2023-03-01T08:19:59;98210.16;;;7.65;39.46
13387;BME280;6763;48.524;9.044;2023-03-01T08:22:24;98211.03;;;7.76;39.58
13387;BME280;6763;48.524;9.044;2023-03-01T08:24:51;98211.88;;;7.87;39.03
13387;BME280;6763;48.524;9.044;2023-03-01T08:27:16;98205.00;;;7.94;39.03
13387;BME280;6763;48.524;9.044;2023-03-01T08:29:42;98208.44;;;7.94;38.55
13387;BME280;6763;48.524;9.044;2023-03-01T08:32:07;98206.72;;;7.95;38.44
13387;BME280;6763;48.524;9.044;2023-03-01T08:34:33;98203.28;;;7.96;38.23
13387;BME280;6763;48.524;9.044;2023-03-01T08:37:01;98198.97;;;7.99;38.23
13387;BME280;6763;48.524;9.044;2023-03-01T08:39:26;98191.25;;;8.04;38.47
13387;BME280;6763;48.524;9.044;2023-03-01T08:41:52;98201.53;;;8.05;38.09
13387;BME280;6763;48.524;9.044;2023-03-01T08:44:17;98204.13;;;8.08;37.92
13387;BME280;6763;48.524;9.044;2023-03-01T08:46:43;98192.94;;;8.14;37.82
13387;BME280;6763;48.524;9.044;2023-03-01T08:49:14;98204.09;;;8.22;37.78
13387;BME280;6763;48.524;9.044;2023-03-01T08:51:41;98193.78;;;8.28;37.88
13387;BME280;6763;48.524;9.044;2023-03-01T08:54:11;98180.00;;;8.38;37.93
13387;BME280;6763;48.524;9.044;2023-03-01T08:56:37;98194.63;;;8.33;37.06
13387;BME280;6763;48.524;9.044;2023-03-01T08:59:02;98185.16;;;8.37;37.59
13387;BME280;6763;48.524;9.044;2023-03-01T09:01:28;98180.81;;;8.43;37.10
13387;BME280;6763;48.524;9.044;2023-03-01T09:03:54;98184.22;;;8.54;37.07
13387;BME280;6763;48.524;9.044;2023-03-01T09:06:19;98176.44;;;8.65;37.12
13387;BME280;6763;48.524;9.044;2023-03-01T09:08:47;98159.19;;;8.76;36.72
13387;BME280;6763;48.524;9.044;2023-03-01T09:11:18;98156.59;;;8.76;35.83
13387;BME280;6763;48.524;9.044;2023-03-01T09:13:45;98164.38;;;8.70;36.51
13387;BME280;6763;48.524;9.044;2023-03-01T09:16:13;98160.88;;;8.77;36.53
13387;BME280;6763;48.524;9.044;2023-03-01T09:18:38;98158.22;;;8.91;35.89
13387;BME280;6763;48.524;9.044;2023-03-01T09:21:09;98157.31;;;9.02;35.46
13387;BME280;6763;48.524;9.044;2023-03-01T09:23:39;98152.00;;;9.19;35.36
13387;BME280;6763;48.524;9.044;2023-03-01T09:26:09;98150.13;;;9.39;35.35
13387;BME280;6763;48.524;9.044;2023-03-01T09:28:36;98150.84;;;9.58;34.82
13387;BME280;6763;48.524;9.044;2023-03-01T09:31:02;98148.91;;;9.79;35.17
13387;BME280;6763;48.524;9.044;2023-03-01T09:33:29;98148.81;;;9.90;34.04
13387;BME280;6763;48.524;9.044;2023-03-01T09:36:05;98152.22;;;9.92;33.62
13387;BME280;6763;48.524;9.044;2023-03-01T09:38:32;98150.47;;;9.95;33.95
13387;BME280;6763;48.524;9.044;2023-03-01T09:40:59;98150.41;;;10.03;33.87
13387;BME280;6763;48.524;9.044;2023-03-01T09:43:35;98158.06;;;10.14;33.39
13387;BME280;6763;48.524;9.044;2023-03-01T09:46:06;98141.63;;;10.18;32.78
13387;BME280;6763;48.524;9.044;2023-03-01T09:48:42;98142.50;;;10.18;33.57
13387;BME280;6763;48.524;9.044;2023-03-01T09:51:14;98135.53;;;10.23;33.45
13387;BME280;6763;48.524;9.044;2023-03-01T09:53:42;98143.16;;;10.37;33.50
13387;BME280;6763;48.524;9.044;2023-03-01T10:01:43;98131.28;;;10.85;32.45
13387;BME280;6763;48.524;9.044;2023-03-01T10:09:35;98123.19;;;11.07;32.10
13387;BME280;6763;48.524;9.044;2023-03-01T10:12:02;98121.22;;;11.23;32.01
13387;BME280;6763;48.524;9.044;2023-03-01T10:14:36;98114.97;;;11.35;31.50
13387;BME280;6763;48.524;9.044;2023-03-01T10:19:55;98103.66;;;11.89;30.86
13387;BME280;6763;48.524;9.044;2023-03-01T10:22:29;98106.91;;;12.00;29.68
13387;BME280;6763;48.524;9.044;2023-03-01T10:24:58;98104.41;;;12.38;30.07
13387;BME280;6763;48.524;9.044;2023-03-01T10:27:28;98098.22;;;13.21;28.82
13387;BME280;6763;48.524;9.044;2023-03-01T10:30:05;98092.66;;;14.02;27.19
13387;BME280;6763;48.524;9.044;2023-03-01T10:32:36;98092.06;;;14.54;26.92
13387;BME280;6763;48.524;9.044;2023-03-01T10:35:15;98087.44;;;14.63;26.09
13387;BME280;6763;48.524;9.044;2023-03-01T10:40:27;98086.91;;;15.35;25.99
13387;BME280;6763;48.524;9.044;2023-03-01T10:42:53;98091.81;;;15.71;25.61
13387;BME280;6763;48.524;9.044;2023-03-01T10:45:37;98084.09;;;15.68;24.54
13387;BME280;6763;48.524;9.044;2023-03-01T10:48:16;98080.97;;;15.57;24.80
13387;BME280;6763;48.524;9.044;2023-03-01T10:50:44;98082.75;;;15.56;25.18
13387;BME280;6763;48.524;9.044;2023-03-01T10:53:32;98074.06;;;15.80;24.79
13387;BME280;6763;48.524;9.044;2023-03-01T10:56:11;98073.41;;;16.23;24.47
13387;BME280;6763;48.524;9.044;2023-03-01T10:59:04;98054.19;;;16.47;23.12
13387;BME280;6763;48.524;9.044;2023-03-01T11:01:34;98050.88;;;16.67;23.98
13387;BME280;6763;48.524;9.044;2023-03-01T11:06:35;98045.19;;;17.43;23.65
13387;BME280;6763;48.524;9.044;2023-03-01T11:09:20;98046.16;;;17.82;22.50
13387;BME280;6763;48.524;9.044;2023-03-01T11:11:46;98039.25;;;18.00;22.17
13387;BME280;6763;48.524;9.044;2023-03-01T11:14:20;98026.84;;;18.03;22.12
13387;BME280;6763;48.524;9.044;2023-03-01T11:16:48;98029.38;;;17.86;21.73
13387;BME280;6763;48.524;9.044;2023-03-01T11:19:21;98024.94;;;17.26;22.09
13387;BME280;6763;48.524;9.044;2023-03-01T11:22:13;98020.28;;;16.69;22.73
13387;BME280;6763;48.524;9.044;2023-03-01T11:24:46;98027.56;;;16.38;23.60
13387;BME280;6763;48.524;9.044;2023-03-01T11:27:24;98023.22;;;16.38;23.14
13387;BME280;6763;48.524;9.044;2023-03-01T11:30:00;98007.91;;;16.51;23.85
13387;BME280;6763;48.524;9.044;2023-03-01T11:32:34;97998.28;;;16.96;23.40
13387;BME280;6763;48.524;9.044;2023-03-01T11:35:12;97999.31;;;17.34;22.76
13387;BME280;6763;48.524;9.044;2023-03-01T11:45:19;97986.00;;;18.74;21.60
13387;BME280;6763;48.524;9.044;2023-03-01T11:48:10;97974.88;;;19.04;20.63
13387;BME280;6763;48.524;9.044;2023-03-01T11:50:46;97971.00;;;18.77;20.23
13387;BME280;6763;48.524;9.044;2023-03-01T12:01:51;97961.38;;;18.03;20.60
13387;BME280;6763;48.524;9.044;2023-03-01T12:04:43;97952.69;;;17.64;21.52
13387;BME280;6763;48.524;9.044;2023-03-01T12:12:42;97936.56;;;17.73;21.74
13387;BME280;6763;48.524;9.044;2023-03-01T12:18:08;97925.53;;;18.60;21.08
13387;BME280;6763;48.524;9.044;2023-03-01T12:29:34;97919.09;;;20.33;19.11
13387;BME280;6763;48.524;9.044;2023-03-01T12:32:16;97900.25;;;20.41;18.59
13387;BME280;6763;48.524;9.044;2023-03-01T12:35:10;97903.03;;;19.74;19.01
13387;BME280;6763;48.524;9.044;2023-03-01T12:40:24;97881.03;;;19.76;19.42
13387;BME280;6763;48.524;9.044;2023-03-01T12:45:53;97880.56;;;20.32;18.93
13387;BME280;6763;48.524;9.044;2023-03-01T12:51:07;97864.16;;;20.59;18.89
13387;BME280;6763;48.524;9.044;2023-03-01T12:53:40;97854.41;;;20.61;18.47
13387;BME280;6763;48.524;9.044;2023-03-01T12:56:11;97865.53;;;20.50;18.75
13387;BME280;6763;48.524;9.044;2023-03-01T13:06:43;97851.59;;;18.70;20.38
13387;BME280;6763;48.524;9.044;2023-03-01T13:09:24;97848.09;;;19.04;20.24
13387;BME280;6763;48.524;9.044;2023-03-01T13:11:51;97845.75;;;19.32;19.84
13387;BME280;6763;48.524;9.044;2023-03-01T13:16:49;97834.09;;;19.86;19.50
13387;BME280;6763;48.524;9.044;2023-03-01T13:21:43;97834.09;;;20.33;19.27
13387;BME280;6763;48.524;9.044;2023-03-01T13:24:38;97837.97;;;20.41;18.67
13387;BME280;6763;48.524;9.044;2023-03-01T13:29:52;97828.56;;;20.22;18.91
13387;BME280;6763;48.524;9.044;2023-03-01T13:32:37;97825.66;;;20.42;18.96
13387;BME280;6763;48.524;9.044;2023-03-01T13:37:43;97825.06;;;20.21;19.13
13387;BME280;6763;48.524;9.044;2023-03-01T13:42:46;97823.31;;;20.06;18.89
13387;BME280;6763;48.524;9.044;2023-03-01T13:45:32;97823.56;;;20.17;19.04
13387;BME280;6763;48.524;9.044;2023-03-01T13:47:59;97827.97;;;20.48;18.78
13387;BME280;6763;48.524;9.044;2023-03-01T13:50:33;97836.13;;;20.73;18.69
13387;BME280;6763;48.524;9.044;2023-03-01T13:53:05;97828.09;;;20.90;18.49
13387;BME280;6763;48.524;9.044;2023-03-01T14:00:45;97813.00;;;20.78;18.32
13387;BME280;6763;48.524;9.044;2023-03-01T14:03:18;97813.34;;;20.58;18.35
13387;BME280;6763;48.524;9.044;2023-03-01T14:06:02;97804.59;;;20.28;18.47
13387;BME280;6763;48.524;9.044;2023-03-01T14:08:29;97821.38;;;19.63;19.19
13387;BME280;6763;48.524;9.044;2023-03-01T14:11:13;97824.41;;;19.55;19.38
13387;BME280;6763;48.524;9.044;2023-03-01T14:17:04;97830.72;;;20.31;18.80
13387;BME280;6763;48.524;9.044;2023-03-01T14:19:33;97821.28;;;20.72;18.78
13387;BME280;6763;48.524;9.044;2023-03-01T14:24:40;97825.53;;;21.19;17.55
13387;BME280;6763;48.524;9.044;2023-03-01T14:27:13;97833.88;;;20.81;17.93
13387;BME280;6763;48.524;9.044;2023-03-01T14:29:39;97840.34;;;20.46;18.42
13387;BME280;6763;48.524;9.044;2023-03-01T14:32:20;97841.38;;;20.44;18.29
13387;BME280;6763;48.524;9.044;2023-03-01T14:34:48;97834.94;;;20.18;18.92
13387;BME280;6763;48.524;9.044;2023-03-01T14:37:25;97841.38;;;19.97;18.88
13387;BME280;6763;48.524;9.044;2023-03-01T14:39:52;97832.22;;;19.88;19.27
13387;BME280;6763;48.524;9.044;2023-03-01T14:42:19;97836.78;;;20.16;19.18
13387;BME280;6763;48.524;9.044;2023-03-01T14:44:48;97838.22;;;20.37;18.73
13387;BME280;6763;48.524;9.044;2023-03-01T14:47:20;97835.78;;;20.34;19.12
13387;BME280;6763;48.524;9.044;2023-03-01T14:49:51;97841.78;;;20.52;18.83
13387;BME280;6763;48.524;9.044;2023-03-01T14:52:21;97838.63;;;20.61;18.62
13387;BME280;6763;48.524;9.044;2023-03-01T14:54:52;97833.56;;;19.79;19.10
13387;BME280;6763;48.524;9.044;2023-03-01T14:57:21;97843.69;;;19.22;19.74
13387;BME280;6763;48.524;9.044;2023-03-01T14:59:48;97846.66;;;18.98;20.10
13387;BME280;6763;48.524;9.044;2023-03-01T15:02:18;97829.13;;;18.82;20.25
13387;BME280;6763;48.524;9.044;2023-03-01T15:04:51;97830.56;;;18.36;20.84
13387;BME280;6763;48.524;9.044;2023-03-01T15:07:19;97834.22;;;18.32;20.97
13387;BME280;6763;48.524;9.044;2023-03-01T15:09:48;97832.25;;;18.73;20.70
13387;BME280;6763;48.524;9.044;2023-03-01T15:12:37;97824.78;;;19.15;20.21
13387;BME280;6763;48.524;9.044;2023-03-01T15:15:30;97829.22;;;19.47;19.92
13387;BME280;6763;48.524;9.044;2023-03-01T15:17:59;97826.91;;;19.41;19.76